sensor_id;sensor_type;location;lat;lon;timestamp;P1;durP1;ratioP1;P2;durP2;ratioP2
69220;SDS011;56331;51.992;20.910;2023-07-13T00:01:29;5.30;;;4.37;;
69220;SDS011;56331;51.992;20.910;2023-07-13T00:03:56;4.72;;;3.62;;
69220;SDS011;56331;51.992;20.910;2023-07-13T00:06:23;6.10;;;4.42;;
69220;SDS011;56331;51.992;20.910;2023-07-13T00:08:50;5.37;;;4.03;;
69220;SDS011;56331;51.992;20.910;2023-07-13T00:11:16;3.98;;;3.60;;
69220;SDS011;56331;51.992;20.910;2023-07-13T00:13:47;4.45;;;3.60;;
69220;SDS011;56331;51.992;20.910;2023-07-13T00:16:12;5.20;;;3.95;;
69220;SDS011;56331;51.992;20.910;2023-07-13T00:18:39;4.15;;;3.50;;
69220;SDS011;56331;51.992;20.910;2023-07-13T00:21:06;4.67;;;3.62;;
69220;SDS011;56331;51.992;20.910;2023-07-13T00:23:36;4.05;;;3.45;;
69220;SDS011;56331;51.992;20.910;2023-07-13T00:26:04;5.58;;;4.03;;
69220;SDS011;56331;51.992;20.910;2023-07-13T00:28:33;4.97;;;4.00;;
69220;SDS011;56331;51.992;20.910;2023-07-13T00:31:00;4.85;;;3.65;;
69220;SDS011;56331;51.992;20.910;2023-07-13T00:33:28;4.00;;;3.60;;
69220;SDS011;56331;51.992;20.910;2023-07-13T00:35:55;4.45;;;3.60;;
69220;SDS011;56331;51.992;20.910;2023-07-13T00:38:22;4.05;;;3.40;;
69220;SDS011;56331;51.992;20.910;2023-07-13T00:40:49;5.90;;;3.72;;
69220;SDS011;56331;51.992;20.910;2023-07-13T00:43:20;5.45;;;3.72;;
69220;SDS011;56331;51.992;20.910;2023-07-13T00:48:19;4.65;;;3.75;;
69220;SDS011;56331;51.992;20.910;2023-07-13T00:50:50;4.50;;;3.47;;
69220;SDS011;56331;51.992;20.910;2023-07-13T00:53:18;5.05;;;3.58;;
69220;SDS011;56331;51.992;20.910;2023-07-13T00:55:47;5.40;;;3.80;;
69220;SDS011;56331;51.992;20.910;2023-07-13T00:58:16;4.58;;;3.22;;
69220;SDS011;56331;51.992;20.910;2023-07-13T01:03:43;5.10;;;4.12;;
69220;SDS011;56331;51.992;20.910;2023-07-13T01:06:14;3.27;;;2.98;;
69220;SDS011;56331;51.992;20.910;2023-07-13T01:08:40;4.22;;;3.60;;
69220;SDS011;56331;51.992;20.910;2023-07-13T01:11:09;3.63;;;3.17;;
69220;SDS011;56331;51.992;20.910;2023-07-13T01:13:36;4.00;;;3.60;;
69220;SDS011;56331;51.992;20.910;2023-07-13T01:16:03;3.58;;;3.25;;
69220;SDS011;56331;51.992;20.910;2023-07-13T01:18:33;5.12;;;3.25;;
69220;SDS011;56331;51.992;20.910;2023-07-13T01:21:01;3.60;;;3.02;;
69220;SDS011;56331;51.992;20.910;2023-07-13T01:23:29;4.77;;;3.53;;
69220;SDS011;56331;51.992;20.910;2023-07-13T01:25:57;5.15;;;3.62;;
69220;SDS011;56331;51.992;20.910;2023-07-13T01:28:25;4.62;;;3.33;;
69220;SDS011;56331;51.992;20.910;2023-07-13T01:30:53;5.80;;;3.33;;
69220;SDS011;56331;51.992;20.910;2023-07-13T01:33:26;5.45;;;3.40;;
69220;SDS011;56331;51.992;20.910;2023-07-13T01:35:50;3.30;;;2.87;;
69220;SDS011;56331;51.992;20.910;2023-07-13T01:38:20;3.40;;;2.98;;
69220;SDS011;56331;51.992;20.910;2023-07-13T01:40:48;3.33;;;3.00;;
69220;SDS011;56331;51.992;20.910;2023-07-13T01:43:15;4.30;;;3.08;;
69220;SDS011;56331;51.992;20.910;2023-07-13T01:45:41;5.22;;;3.20;;
69220;SDS011;56331;51.992;20.910;2023-07-13T01:48:10;5.00;;;3.35;;
69220;SDS011;56331;51.992;20.910;2023-07-13T01:50:37;3.65;;;2.85;;
69220;SDS011;56331;51.992;20.910;2023-07-13T01:53:04;5.17;;;3.45;;
69220;SDS011;56331;51.992;20.910;2023-07-13T01:55:30;3.98;;;2.85;;
69220;SDS011;56331;51.992;20.910;2023-07-13T01:57:57;3.98;;;3.02;;
69220;SDS011;56331;51.992;20.910;2023-07-13T02:00:23;3.92;;;3.00;;
69220;SDS011;56331;51.992;20.910;2023-07-13T02:02:50;5.03;;;2.95;;
69220;SDS011;56331;51.992;20.910;2023-07-13T02:05:18;3.30;;;3.00;;
69220;SDS011;56331;51.992;20.910;2023-07-13T02:07:44;4.25;;;2.85;;
69220;SDS011;56331;51.992;20.910;2023-07-13T02:10:11;3.75;;;3.00;;
69220;SDS011;56331;51.992;20.910;2023-07-13T02:12:38;3.27;;;2.90;;
69220;SDS011;56331;51.992;20.910;2023-07-13T02:15:04;3.80;;;3.20;;
69220;SDS011;56331;51.992;20.910;2023-07-13T02:17:31;3.62;;;2.92;;
69220;SDS011;56331;51.992;20.910;2023-07-13T02:20:13;3.33;;;3.02;;
69220;SDS011;56331;51.992;20.910;2023-07-13T02:22:39;3.45;;;3.00;;
69220;SDS011;56331;51.992;20.910;2023-07-13T02:25:06;4.70;;;3.00;;
69220;SDS011;56331;51.992;20.910;2023-07-13T02:27:33;3.20;;;2.90;;
69220;SDS011;56331;51.992;20.910;2023-07-13T02:29:59;4.80;;;3.17;;
69220;SDS011;56331;51.992;20.910;2023-07-13T02:32:26;4.35;;;3.25;;
69220;SDS011;56331;51.992;20.910;2023-07-13T02:34:52;3.52;;;3.22;;
69220;SDS011;56331;51.992;20.910;2023-07-13T02:37:19;3.50;;;3.15;;
69220;SDS011;56331;51.992;20.910;2023-07-13T02:39:46;3.52;;;2.95;;
69220;SDS011;56331;51.992;20.910;2023-07-13T02:42:13;5.70;;;3.05;;
69220;SDS011;56331;51.992;20.910;2023-07-13T02:44:39;3.92;;;2.92;;
69220;SDS011;56331;51.992;20.910;2023-07-13T02:47:06;4.60;;;3.05;;
69220;SDS011;56331;51.992;20.910;2023-07-13T02:49:32;4.40;;;3.17;;
69220;SDS011;56331;51.992;20.910;2023-07-13T02:51:58;4.90;;;3.30;;
69220;SDS011;56331;51.992;20.910;2023-07-13T02:54:25;3.55;;;3.10;;
69220;SDS011;56331;51.992;20.910;2023-07-13T02:56:51;4.17;;;3.10;;
69220;SDS011;56331;51.992;20.910;2023-07-13T02:59:18;3.60;;;3.05;;
69220;SDS011;56331;51.992;20.910;2023-07-13T03:01:44;3.45;;;2.47;;
69220;SDS011;56331;51.992;20.910;2023-07-13T03:04:10;3.95;;;2.83;;
69220;SDS011;56331;51.992;20.910;2023-07-13T03:06:38;4.05;;;2.95;;
69220;SDS011;56331;51.992;20.910;2023-07-13T03:09:05;3.17;;;2.87;;
69220;SDS011;56331;51.992;20.910;2023-07-13T03:11:31;4.08;;;3.30;;
69220;SDS011;56331;51.992;20.910;2023-07-13T03:13:58;3.65;;;2.75;;
69220;SDS011;56331;51.992;20.910;2023-07-13T03:16:24;3.70;;;2.67;;
69220;SDS011;56331;51.992;20.910;2023-07-13T03:18:51;4.03;;;2.70;;
69220;SDS011;56331;51.992;20.910;2023-07-13T03:21:18;3.67;;;2.90;;
69220;SDS011;56331;51.992;20.910;2023-07-13T03:23:46;3.90;;;3.08;;
69220;SDS011;56331;51.992;20.910;2023-07-13T03:26:17;3.72;;;2.85;;
69220;SDS011;56331;51.992;20.910;2023-07-13T03:28:44;3.50;;;2.80;;
69220;SDS011;56331;51.992;20.910;2023-07-13T03:31:15;3.37;;;2.90;;
69220;SDS011;56331;51.992;20.910;2023-07-13T03:33:45;2.87;;;2.60;;
69220;SDS011;56331;51.992;20.910;2023-07-13T03:36:14;2.42;;;2.20;;
69220;SDS011;56331;51.992;20.910;2023-07-13T03:38:45;3.08;;;2.75;;
69220;SDS011;56331;51.992;20.910;2023-07-13T03:41:14;3.02;;;2.72;;
69220;SDS011;56331;51.992;20.910;2023-07-13T03:43:41;3.77;;;3.02;;
69220;SDS011;56331;51.992;20.910;2023-07-13T03:46:11;4.03;;;3.15;;
69220;SDS011;56331;51.992;20.910;2023-07-13T03:48:37;3.10;;;2.40;;
69220;SDS011;56331;51.992;20.910;2023-07-13T03:51:05;3.37;;;2.87;;
69220;SDS011;56331;51.992;20.910;2023-07-13T03:53:32;3.40;;;2.90;;
69220;SDS011;56331;51.992;20.910;2023-07-13T03:56:00;2.95;;;2.62;;
69220;SDS011;56331;51.992;20.910;2023-07-13T03:58:31;3.62;;;3.00;;
69220;SDS011;56331;51.992;20.910;2023-07-13T04:01:00;3.40;;;2.65;;
69220;SDS011;56331;51.992;20.910;2023-07-13T04:03:29;3.27;;;2.58;;
69220;SDS011;56331;51.992;20.910;2023-07-13T04:05:57;3.70;;;2.80;;
69220;SDS011;56331;51.992;20.910;2023-07-13T04:08:30;2.90;;;2.57;;
69220;SDS011;56331;51.992;20.910;2023-07-13T04:10:59;2.90;;;2.60;;
69220;SDS011;56331;51.992;20.910;2023-07-13T04:13:25;2.87;;;2.58;;
69220;SDS011;56331;51.992;20.910;2023-07-13T04:15:53;3.55;;;3.08;;
69220;SDS011;56331;51.992;20.910;2023-07-13T04:18:19;4.40;;;2.80;;
69220;SDS011;56331;51.992;20.910;2023-07-13T04:20:47;2.75;;;2.47;;
69220;SDS011;56331;51.992;20.910;2023-07-13T04:23:15;3.95;;;2.52;;
69220;SDS011;56331;51.992;20.910;2023-07-13T04:25:51;3.87;;;2.87;;
69220;SDS011;56331;51.992;20.910;2023-07-13T04:28:15;2.72;;;2.40;;
69220;SDS011;56331;51.992;20.910;2023-07-13T04:30:44;3.98;;;3.08;;
69220;SDS011;56331;51.992;20.910;2023-07-13T04:33:10;3.62;;;2.60;;
69220;SDS011;56331;51.992;20.910;2023-07-13T04:35:36;3.25;;;2.95;;
69220;SDS011;56331;51.992;20.910;2023-07-13T04:38:03;3.90;;;2.60;;
69220;SDS011;56331;51.992;20.910;2023-07-13T04:40:29;4.45;;;3.42;;
69220;SDS011;56331;51.992;20.910;2023-07-13T04:42:56;3.20;;;2.70;;
69220;SDS011;56331;51.992;20.910;2023-07-13T04:45:24;2.95;;;2.65;;
69220;SDS011;56331;51.992;20.910;2023-07-13T04:47:50;2.67;;;2.33;;
69220;SDS011;56331;51.992;20.910;2023-07-13T04:50:17;2.72;;;2.42;;
69220;SDS011;56331;51.992;20.910;2023-07-13T04:52:45;3.50;;;2.67;;
69220;SDS011;56331;51.992;20.910;2023-07-13T04:55:12;2.72;;;2.27;;
69220;SDS011;56331;51.992;20.910;2023-07-13T04:57:39;3.42;;;2.70;;
69220;SDS011;56331;51.992;20.910;2023-07-13T05:00:05;2.85;;;2.50;;
69220;SDS011;56331;51.992;20.910;2023-07-13T05:02:33;3.90;;;2.40;;
69220;SDS011;56331;51.992;20.910;2023-07-13T05:05:01;3.67;;;2.83;;
69220;SDS011;56331;51.992;20.910;2023-07-13T05:07:29;3.10;;;2.80;;
69220;SDS011;56331;51.992;20.910;2023-07-13T05:09:56;3.52;;;2.85;;
69220;SDS011;56331;51.992;20.910;2023-07-13T05:12:22;3.30;;;2.90;;
69220;SDS011;56331;51.992;20.910;2023-07-13T05:14:49;2.98;;;2.70;;
69220;SDS011;56331;51.992;20.910;2023-07-13T05:17:16;3.30;;;3.00;;
69220;SDS011;56331;51.992;20.910;2023-07-13T05:19:45;3.65;;;3.10;;
69220;SDS011;56331;51.992;20.910;2023-07-13T05:22:11;3.45;;;2.80;;
69220;SDS011;56331;51.992;20.910;2023-07-13T05:24:38;3.60;;;3.02;;
69220;SDS011;56331;51.992;20.910;2023-07-13T05:27:05;3.70;;;3.08;;
69220;SDS011;56331;51.992;20.910;2023-07-13T05:29:31;4.95;;;3.20;;
69220;SDS011;56331;51.992;20.910;2023-07-13T05:31:58;4.95;;;3.20;;
69220;SDS011;56331;51.992;20.910;2023-07-13T05:34:25;3.65;;;3.20;;
69220;SDS011;56331;51.992;20.910;2023-07-13T05:36:52;4.05;;;3.05;;
69220;SDS011;56331;51.992;20.910;2023-07-13T05:39:19;3.72;;;2.90;;
69220;SDS011;56331;51.992;20.910;2023-07-13T05:41:46;4.90;;;3.45;;
69220;SDS011;56331;51.992;20.910;2023-07-13T05:44:12;7.90;;;3.42;;
69220;SDS011;56331;51.992;20.910;2023-07-13T05:47:07;4.92;;;3.30;;
69220;SDS011;56331;51.992;20.910;2023-07-13T05:49:34;4.10;;;3.42;;
69220;SDS011;56331;51.992;20.910;2023-07-13T05:52:00;4.37;;;3.50;;
69220;SDS011;56331;51.992;20.910;2023-07-13T05:54:27;3.87;;;3.45;;
69220;SDS011;56331;51.992;20.910;2023-07-13T05:56:56;4.37;;;3.58;;
69220;SDS011;56331;51.992;20.910;2023-07-13T05:59:24;4.25;;;3.58;;
69220;SDS011;56331;51.992;20.910;2023-07-13T06:01:51;4.70;;;4.00;;
69220;SDS011;56331;51.992;20.910;2023-07-13T06:04:20;3.67;;;3.33;;
69220;SDS011;56331;51.992;20.910;2023-07-13T06:06:47;6.47;;;3.60;;
69220;SDS011;56331;51.992;20.910;2023-07-13T06:09:13;5.75;;;3.80;;
69220;SDS011;56331;51.992;20.910;2023-07-13T06:11:40;5.28;;;4.15;;
69220;SDS011;56331;51.992;20.910;2023-07-13T06:14:06;5.05;;;4.05;;
69220;SDS011;56331;51.992;20.910;2023-07-13T06:16:33;5.17;;;4.03;;
69220;SDS011;56331;51.992;20.910;2023-07-13T06:18:59;4.85;;;3.92;;
69220;SDS011;56331;51.992;20.910;2023-07-13T06:21:25;6.25;;;3.77;;
69220;SDS011;56331;51.992;20.910;2023-07-13T06:23:52;5.53;;;4.08;;
69220;SDS011;56331;51.992;20.910;2023-07-13T06:26:19;6.35;;;4.28;;
69220;SDS011;56331;51.992;20.910;2023-07-13T06:28:48;4.10;;;3.60;;
69220;SDS011;56331;51.992;20.910;2023-07-13T06:31:16;4.67;;;3.87;;
69220;SDS011;56331;51.992;20.910;2023-07-13T06:33:43;4.35;;;3.95;;
69220;SDS011;56331;51.992;20.910;2023-07-13T06:36:09;8.28;;;4.10;;
69220;SDS011;56331;51.992;20.910;2023-07-13T06:38:38;6.58;;;4.30;;
69220;SDS011;56331;51.992;20.910;2023-07-13T06:41:05;11.18;;;5.00;;
69220;SDS011;56331;51.992;20.910;2023-07-13T06:43:33;8.28;;;5.17;;
69220;SDS011;56331;51.992;20.910;2023-07-13T06:45:59;13.32;;;5.80;;
69220;SDS011;56331;51.992;20.910;2023-07-13T06:48:26;12.05;;;5.78;;
69220;SDS011;56331;51.992;20.910;2023-07-13T06:50:54;10.10;;;5.30;;
69220;SDS011;56331;51.992;20.910;2023-07-13T06:53:20;12.55;;;5.45;;
69220;SDS011;56331;51.992;20.910;2023-07-13T06:55:47;8.63;;;5.40;;
69220;SDS011;56331;51.992;20.910;2023-07-13T06:58:15;10.35;;;5.95;;
69220;SDS011;56331;51.992;20.910;2023-07-13T07:00:42;8.03;;;5.65;;
69220;SDS011;56331;51.992;20.910;2023-07-13T07:03:09;11.78;;;5.78;;
69220;SDS011;56331;51.992;20.910;2023-07-13T07:05:35;8.20;;;5.45;;
69220;SDS011;56331;51.992;20.910;2023-07-13T07:08:01;9.83;;;5.65;;
69220;SDS011;56331;51.992;20.910;2023-07-13T07:10:29;8.55;;;5.70;;
69220;SDS011;56331;51.992;20.910;2023-07-13T07:12:56;9.23;;;5.62;;
69220;SDS011;56331;51.992;20.910;2023-07-13T07:15:22;11.53;;;5.53;;
69220;SDS011;56331;51.992;20.910;2023-07-13T07:17:49;7.15;;;4.78;;
69220;SDS011;56331;51.992;20.910;2023-07-13T07:20:15;8.18;;;4.65;;
69220;SDS011;56331;51.992;20.910;2023-07-13T07:22:41;8.00;;;5.22;;
69220;SDS011;56331;51.992;20.910;2023-07-13T07:25:08;9.45;;;5.15;;
69220;SDS011;56331;51.992;20.910;2023-07-13T07:27:34;7.03;;;5.40;;
69220;SDS011;56331;51.992;20.910;2023-07-13T07:30:01;8.00;;;5.15;;
69220;SDS011;56331;51.992;20.910;2023-07-13T07:32:28;8.35;;;5.12;;
69220;SDS011;56331;51.992;20.910;2023-07-13T07:34:57;7.80;;;5.55;;
69220;SDS011;56331;51.992;20.910;2023-07-13T07:37:24;4.95;;;4.33;;
69220;SDS011;56331;51.992;20.910;2023-07-13T07:39:50;7.35;;;5.42;;
69220;SDS011;56331;51.992;20.910;2023-07-13T07:42:17;6.97;;;5.15;;
69220;SDS011;56331;51.992;20.910;2023-07-13T07:44:43;7.17;;;4.97;;
69220;SDS011;56331;51.992;20.910;2023-07-13T07:47:13;7.25;;;5.10;;
69220;SDS011;56331;51.992;20.910;2023-07-13T07:49:39;11.78;;;6.65;;
69220;SDS011;56331;51.992;20.910;2023-07-13T07:52:06;10.85;;;7.22;;
69220;SDS011;56331;51.992;20.910;2023-07-13T07:54:33;11.15;;;6.95;;
69220;SDS011;56331;51.992;20.910;2023-07-13T07:56:59;9.53;;;7.53;;
69220;SDS011;56331;51.992;20.910;2023-07-13T07:59:25;9.48;;;7.03;;
69220;SDS011;56331;51.992;20.910;2023-07-13T08:01:52;9.63;;;5.80;;
69220;SDS011;56331;51.992;20.910;2023-07-13T08:04:18;8.68;;;6.20;;
69220;SDS011;56331;51.992;20.910;2023-07-13T08:06:45;10.05;;;6.08;;
69220;SDS011;56331;51.992;20.910;2023-07-13T08:09:11;7.30;;;5.35;;
69220;SDS011;56331;51.992;20.910;2023-07-13T08:11:40;7.30;;;5.33;;
69220;SDS011;56331;51.992;20.910;2023-07-13T08:14:06;8.85;;;5.65;;
69220;SDS011;56331;51.992;20.910;2023-07-13T08:16:32;10.18;;;5.08;;
69220;SDS011;56331;51.992;20.910;2023-07-13T08:18:59;7.95;;;5.62;;
69220;SDS011;56331;51.992;20.910;2023-07-13T08:21:26;7.55;;;5.65;;
69220;SDS011;56331;51.992;20.910;2023-07-13T08:23:52;8.73;;;5.60;;
69220;SDS011;56331;51.992;20.910;2023-07-13T08:26:19;6.87;;;4.97;;
69220;SDS011;56331;51.992;20.910;2023-07-13T08:28:45;7.12;;;5.25;;
69220;SDS011;56331;51.992;20.910;2023-07-13T08:31:11;7.35;;;5.35;;
69220;SDS011;56331;51.992;20.910;2023-07-13T08:33:38;7.58;;;5.17;;
69220;SDS011;56331;51.992;20.910;2023-07-13T08:36:06;6.92;;;5.10;;
69220;SDS011;56331;51.992;20.910;2023-07-13T08:38:33;5.95;;;4.85;;
69220;SDS011;56331;51.992;20.910;2023-07-13T08:41:02;6.80;;;4.95;;
69220;SDS011;56331;51.992;20.910;2023-07-13T08:43:30;7.90;;;5.83;;
69220;SDS011;56331;51.992;20.910;2023-07-13T08:48:33;8.05;;;4.97;;
69220;SDS011;56331;51.992;20.910;2023-07-13T08:54:02;7.65;;;5.00;;
69220;SDS011;56331;51.992;20.910;2023-07-13T08:56:30;7.33;;;5.10;;
69220;SDS011;56331;51.992;20.910;2023-07-13T08:59:00;9.28;;;5.35;;
69220;SDS011;56331;51.992;20.910;2023-07-13T09:05:13;9.35;;;5.60;;
69220;SDS011;56331;51.992;20.910;2023-07-13T09:12:33;12.37;;;5.53;;
69220;SDS011;56331;51.992;20.910;2023-07-13T09:14:51;9.55;;;5.87;;
69220;SDS011;56331;51.992;20.910;2023-07-13T09:17:22;9.20;;;5.37;;
69220;SDS011;56331;51.992;20.910;2023-07-13T09:20:01;7.08;;;5.87;;
69220;SDS011;56331;51.992;20.910;2023-07-13T09:22:33;11.43;;;7.03;;
69220;SDS011;56331;51.992;20.910;2023-07-13T09:27:36;9.68;;;6.42;;
69220;SDS011;56331;51.992;20.910;2023-07-13T09:32:41;7.53;;;6.15;;
69220;SDS011;56331;51.992;20.910;2023-07-13T09:35:11;9.68;;;7.42;;
69220;SDS011;56331;51.992;20.910;2023-07-13T09:37:40;12.58;;;7.42;;
69220;SDS011;56331;51.992;20.910;2023-07-13T09:40:36;8.55;;;7.00;;
69220;SDS011;56331;51.992;20.910;2023-07-13T09:42:58;9.03;;;6.65;;
69220;SDS011;56331;51.992;20.910;2023-07-13T09:45:29;9.88;;;6.20;;
69220;SDS011;56331;51.992;20.910;2023-07-13T09:48:03;7.85;;;6.97;;
69220;SDS011;56331;51.992;20.910;2023-07-13T09:50:34;8.20;;;6.22;;
69220;SDS011;56331;51.992;20.910;2023-07-13T09:53:01;7.40;;;6.62;;
69220;SDS011;56331;51.992;20.910;2023-07-13T09:58:06;8.70;;;6.90;;
69220;SDS011;56331;51.992;20.910;2023-07-13T10:00:41;7.92;;;7.08;;
69220;SDS011;56331;51.992;20.910;2023-07-13T10:03:19;7.03;;;6.35;;
69220;SDS011;56331;51.992;20.910;2023-07-13T10:05:49;7.90;;;6.60;;
69220;SDS011;56331;51.992;20.910;2023-07-13T10:08:18;6.60;;;5.87;;
69220;SDS011;56331;51.992;20.910;2023-07-13T10:16:00;9.10;;;6.55;;
69220;SDS011;56331;51.992;20.910;2023-07-13T10:18:28;9.78;;;6.47;;
69220;SDS011;56331;51.992;20.910;2023-07-13T10:21:08;6.97;;;6.07;;
69220;SDS011;56331;51.992;20.910;2023-07-13T10:23:36;8.25;;;6.20;;
69220;SDS011;56331;51.992;20.910;2023-07-13T10:26:03;8.55;;;6.25;;
69220;SDS011;56331;51.992;20.910;2023-07-13T10:28:34;7.92;;;5.97;;
69220;SDS011;56331;51.992;20.910;2023-07-13T10:31:04;8.28;;;5.92;;
69220;SDS011;56331;51.992;20.910;2023-07-13T10:33:33;9.40;;;5.92;;
69220;SDS011;56331;51.992;20.910;2023-07-13T10:38:45;9.15;;;6.10;;
69220;SDS011;56331;51.992;20.910;2023-07-13T10:41:15;9.18;;;5.92;;
69220;SDS011;56331;51.992;20.910;2023-07-13T10:43:49;8.45;;;5.40;;
69220;SDS011;56331;51.992;20.910;2023-07-13T10:48:46;10.60;;;6.20;;
69220;SDS011;56331;51.992;20.910;2023-07-13T10:51:17;8.90;;;5.97;;
69220;SDS011;56331;51.992;20.910;2023-07-13T10:53:46;7.35;;;5.53;;
69220;SDS011;56331;51.992;20.910;2023-07-13T10:56:24;6.70;;;5.42;;
69220;SDS011;56331;51.992;20.910;2023-07-13T10:59:17;9.83;;;5.58;;
69220;SDS011;56331;51.992;20.910;2023-07-13T11:01:45;8.33;;;5.78;;
69220;SDS011;56331;51.992;20.910;2023-07-13T11:04:16;6.85;;;5.70;;
69220;SDS011;56331;51.992;20.910;2023-07-13T11:06:47;14.23;;;5.70;;
69220;SDS011;56331;51.992;20.910;2023-07-13T11:09:30;13.75;;;5.12;;
69220;SDS011;56331;51.992;20.910;2023-07-13T11:11:59;10.08;;;5.42;;
69220;SDS011;56331;51.992;20.910;2023-07-13T11:14:32;13.30;;;4.70;;
69220;SDS011;56331;51.992;20.910;2023-07-13T11:17:23;11.70;;;4.83;;
69220;SDS011;56331;51.992;20.910;2023-07-13T11:19:48;8.18;;;4.60;;
69220;SDS011;56331;51.992;20.910;2023-07-13T11:22:23;12.20;;;5.08;;
69220;SDS011;56331;51.992;20.910;2023-07-13T11:27:34;8.68;;;4.87;;
69220;SDS011;56331;51.992;20.910;2023-07-13T11:30:13;7.72;;;4.67;;
69220;SDS011;56331;51.992;20.910;2023-07-13T11:36:00;7.25;;;4.90;;
69220;SDS011;56331;51.992;20.910;2023-07-13T11:41:05;9.13;;;4.67;;
69220;SDS011;56331;51.992;20.910;2023-07-13T11:43:45;9.65;;;4.53;;
69220;SDS011;56331;51.992;20.910;2023-07-13T11:46:20;8.45;;;4.12;;
69220;SDS011;56331;51.992;20.910;2023-07-13T11:48:48;10.53;;;4.50;;
69220;SDS011;56331;51.992;20.910;2023-07-13T11:51:33;6.47;;;4.12;;
69220;SDS011;56331;51.992;20.910;2023-07-13T11:56:41;7.07;;;4.53;;
69220;SDS011;56331;51.992;20.910;2023-07-13T11:59:10;8.60;;;3.92;;
69220;SDS011;56331;51.992;20.910;2023-07-13T12:01:42;5.90;;;4.28;;
69220;SDS011;56331;51.992;20.910;2023-07-13T12:04:08;5.92;;;4.20;;
69220;SDS011;56331;51.992;20.910;2023-07-13T12:06:38;7.33;;;4.85;;
69220;SDS011;56331;51.992;20.910;2023-07-13T12:09:13;5.65;;;4.33;;
69220;SDS011;56331;51.992;20.910;2023-07-13T12:11:44;5.17;;;4.30;;
69220;SDS011;56331;51.992;20.910;2023-07-13T12:14:14;8.75;;;4.00;;
69220;SDS011;56331;51.992;20.910;2023-07-13T12:16:41;5.92;;;4.20;;
69220;SDS011;56331;51.992;20.910;2023-07-13T12:19:16;6.90;;;3.95;;
69220;SDS011;56331;51.992;20.910;2023-07-13T12:21:48;7.85;;;4.33;;
69220;SDS011;56331;51.992;20.910;2023-07-13T12:24:16;8.25;;;4.60;;
69220;SDS011;56331;51.992;20.910;2023-07-13T12:26:44;4.80;;;4.10;;
69220;SDS011;56331;51.992;20.910;2023-07-13T12:29:23;4.75;;;4.08;;
69220;SDS011;56331;51.992;20.910;2023-07-13T12:31:50;6.70;;;4.00;;
69220;SDS011;56331;51.992;20.910;2023-07-13T12:34:19;4.70;;;4.17;;
69220;SDS011;56331;51.992;20.910;2023-07-13T12:36:51;8.25;;;4.97;;
69220;SDS011;56331;51.992;20.910;2023-07-13T12:42:37;5.95;;;4.40;;
69220;SDS011;56331;51.992;20.910;2023-07-13T12:44:54;8.03;;;4.75;;
69220;SDS011;56331;51.992;20.910;2023-07-13T12:47:26;5.22;;;3.83;;
69220;SDS011;56331;51.992;20.910;2023-07-13T12:49:57;7.47;;;4.08;;
69220;SDS011;56331;51.992;20.910;2023-07-13T12:52:29;7.28;;;4.83;;
69220;SDS011;56331;51.992;20.910;2023-07-13T12:55:03;8.05;;;4.33;;
69220;SDS011;56331;51.992;20.910;2023-07-13T12:57:38;5.97;;;4.17;;
69220;SDS011;56331;51.992;20.910;2023-07-13T13:00:18;5.90;;;3.98;;
69220;SDS011;56331;51.992;20.910;2023-07-13T13:02:36;5.05;;;3.77;;
69220;SDS011;56331;51.992;20.910;2023-07-13T13:05:03;6.80;;;3.52;;
69220;SDS011;56331;51.992;20.910;2023-07-13T13:07:30;5.25;;;3.72;;
69220;SDS011;56331;51.992;20.910;2023-07-13T13:09:57;7.28;;;3.67;;
69220;SDS011;56331;51.992;20.910;2023-07-13T13:12:23;8.00;;;3.92;;
69220;SDS011;56331;51.992;20.910;2023-07-13T13:14:55;3.95;;;3.12;;
69220;SDS011;56331;51.992;20.910;2023-07-13T13:17:24;5.00;;;3.83;;
69220;SDS011;56331;51.992;20.910;2023-07-13T13:19:53;6.00;;;3.40;;
69220;SDS011;56331;51.992;20.910;2023-07-13T13:22:20;6.00;;;3.30;;
69220;SDS011;56331;51.992;20.910;2023-07-13T13:24:47;4.55;;;3.52;;
69220;SDS011;56331;51.992;20.910;2023-07-13T13:27:16;4.33;;;3.27;;
69220;SDS011;56331;51.992;20.910;2023-07-13T13:29:45;7.05;;;3.60;;
69220;SDS011;56331;51.992;20.910;2023-07-13T13:32:12;5.53;;;3.37;;
69220;SDS011;56331;51.992;20.910;2023-07-13T13:34:41;5.75;;;3.40;;
69220;SDS011;56331;51.992;20.910;2023-07-13T13:39:47;5.35;;;3.70;;
69220;SDS011;56331;51.992;20.910;2023-07-13T13:42:15;5.85;;;3.95;;
69220;SDS011;56331;51.992;20.910;2023-07-13T13:44:41;6.58;;;3.77;;
69220;SDS011;56331;51.992;20.910;2023-07-13T13:47:17;5.50;;;3.87;;
69220;SDS011;56331;51.992;20.910;2023-07-13T13:49:40;7.28;;;4.10;;
69220;SDS011;56331;51.992;20.910;2023-07-13T13:52:08;13.13;;;5.17;;
69220;SDS011;56331;51.992;20.910;2023-07-13T13:54:36;6.78;;;5.22;;
69220;SDS011;56331;51.992;20.910;2023-07-13T13:57:02;7.65;;;5.28;;
69220;SDS011;56331;51.992;20.910;2023-07-13T13:59:30;5.95;;;4.42;;
69220;SDS011;56331;51.992;20.910;2023-07-13T14:01:58;7.28;;;4.42;;
69220;SDS011;56331;51.992;20.910;2023-07-13T14:04:26;8.15;;;4.37;;
69220;SDS011;56331;51.992;20.910;2023-07-13T14:06:52;6.60;;;4.42;;
69220;SDS011;56331;51.992;20.910;2023-07-13T14:09:19;6.28;;;4.40;;
69220;SDS011;56331;51.992;20.910;2023-07-13T14:11:46;7.37;;;4.50;;
69220;SDS011;56331;51.992;20.910;2023-07-13T14:14:16;6.87;;;4.40;;
69220;SDS011;56331;51.992;20.910;2023-07-13T14:16:45;7.00;;;4.40;;
69220;SDS011;56331;51.992;20.910;2023-07-13T14:19:13;7.95;;;3.92;;
69220;SDS011;56331;51.992;20.910;2023-07-13T14:21:41;7.62;;;4.12;;
69220;SDS011;56331;51.992;20.910;2023-07-13T14:24:08;7.53;;;4.47;;
69220;SDS011;56331;51.992;20.910;2023-07-13T14:26:39;5.55;;;4.55;;
69220;SDS011;56331;51.992;20.910;2023-07-13T14:29:04;7.08;;;4.12;;
69220;SDS011;56331;51.992;20.910;2023-07-13T14:31:33;6.05;;;4.20;;
69220;SDS011;56331;51.992;20.910;2023-07-13T14:33:59;13.15;;;5.50;;
69220;SDS011;56331;51.992;20.910;2023-07-13T14:38:58;6.78;;;4.42;;
69220;SDS011;56331;51.992;20.910;2023-07-13T14:41:27;6.60;;;4.50;;
69220;SDS011;56331;51.992;20.910;2023-07-13T14:43:53;8.05;;;4.70;;
69220;SDS011;56331;51.992;20.910;2023-07-13T14:46:30;6.87;;;4.42;;
69220;SDS011;56331;51.992;20.910;2023-07-13T14:48:56;6.00;;;4.30;;
69220;SDS011;56331;51.992;20.910;2023-07-13T14:51:24;7.33;;;4.53;;
69220;SDS011;56331;51.992;20.910;2023-07-13T14:53:50;5.55;;;4.53;;
69220;SDS011;56331;51.992;20.910;2023-07-13T14:56:16;7.70;;;4.72;;
69220;SDS011;56331;51.992;20.910;2023-07-13T14:58:43;6.75;;;4.55;;
69220;SDS011;56331;51.992;20.910;2023-07-13T15:01:13;8.18;;;4.45;;
69220;SDS011;56331;51.992;20.910;2023-07-13T15:03:43;9.60;;;4.58;;
69220;SDS011;56331;51.992;20.910;2023-07-13T15:06:11;11.95;;;5.17;;
69220;SDS011;56331;51.992;20.910;2023-07-13T15:08:39;8.38;;;4.80;;
69220;SDS011;56331;51.992;20.910;2023-07-13T15:11:08;7.03;;;4.92;;
69220;SDS011;56331;51.992;20.910;2023-07-13T15:13:39;17.12;;;5.67;;
69220;SDS011;56331;51.992;20.910;2023-07-13T15:16:22;8.08;;;4.75;;
69220;SDS011;56331;51.992;20.910;2023-07-13T15:18:50;8.95;;;4.50;;
69220;SDS011;56331;51.992;20.910;2023-07-13T15:21:20;6.77;;;4.53;;
69220;SDS011;56331;51.992;20.910;2023-07-13T15:23:52;7.08;;;4.83;;
69220;SDS011;56331;51.992;20.910;2023-07-13T15:26:17;8.63;;;4.28;;
69220;SDS011;56331;51.992;20.910;2023-07-13T15:28:45;9.55;;;4.37;;
69220;SDS011;56331;51.992;20.910;2023-07-13T15:31:22;8.43;;;4.42;;
69220;SDS011;56331;51.992;20.910;2023-07-13T15:33:51;10.23;;;5.08;;
69220;SDS011;56331;51.992;20.910;2023-07-13T15:36:19;6.17;;;4.25;;
69220;SDS011;56331;51.992;20.910;2023-07-13T15:38:46;8.18;;;4.10;;